createdAt,value
2023-09-26T00:01:20.515Z,8.73
2023-09-26T00:04:09.992Z,7.85
2023-09-26T00:07:01.202Z,8.65
2023-09-26T00:09:49.225Z,7.95
2023-09-26T00:12:38.638Z,9.18
2023-09-26T00:15:26.367Z,9.88
2023-09-26T00:18:14.498Z,11.90
2023-09-26T00:21:02.447Z,10.68
2023-09-26T00:23:50.538Z,9.38
2023-09-26T00:26:38.684Z,8.32
2023-09-26T00:29:27.864Z,8.73
2023-09-26T00:32:15.627Z,8.77
2023-09-26T00:35:05.285Z,8.75
2023-09-26T00:37:54.555Z,4.35
2023-09-26T00:40:42.832Z,8.27
2023-09-26T00:43:30.735Z,8.13
2023-09-26T00:46:22.470Z,8.10
2023-09-26T00:49:11.605Z,8.18
2023-09-26T00:52:00.952Z,9.32
2023-09-26T00:54:49.307Z,8.98
2023-09-26T00:57:38.667Z,7.78
2023-09-26T01:00:27.633Z,8.25
2023-09-26T01:03:17.365Z,8.48
2023-09-26T01:06:05.520Z,8.77
2023-09-26T01:08:53.329Z,8.18
2023-09-26T01:11:41.351Z,8.00
2023-09-26T01:14:28.935Z,9.13
2023-09-26T01:17:19.143Z,9.48
2023-09-26T01:20:14.343Z,9.98
2023-09-26T01:23:05.596Z,9.48
2023-09-26T01:25:55.413Z,10.60
2023-09-26T01:28:42.901Z,3.33
2023-09-26T01:31:30.608Z,9.52
2023-09-26T01:34:18.935Z,4.13
2023-09-26T01:37:06.871Z,12.00
2023-09-26T01:39:54.671Z,11.52
2023-09-26T01:42:43.574Z,3.88
2023-09-26T01:45:31.091Z,11.35
2023-09-26T01:48:18.826Z,10.65
2023-09-26T01:51:07.500Z,10.68
2023-09-26T01:53:55.274Z,11.73
2023-09-26T01:56:43.171Z,5.93
2023-09-26T01:59:32.427Z,11.10
2023-09-26T02:02:20.468Z,10.20
2023-09-26T02:05:09.094Z,11.68
2023-09-26T02:07:56.851Z,10.98
2023-09-26T02:10:45.123Z,4.57
2023-09-26T02:13:33.552Z,10.88
2023-09-26T02:16:23.013Z,6.47
2023-09-26T02:19:11.976Z,4.93
2023-09-26T02:21:59.751Z,14.45
2023-09-26T02:24:47.525Z,6.72
2023-09-26T02:27:35.943Z,6.20
2023-09-26T02:30:25.047Z,15.90
2023-09-26T02:33:14.033Z,19.83
2023-09-26T02:36:01.560Z,16.88
2023-09-26T02:38:51.247Z,14.75
2023-09-26T02:41:39.255Z,5.78
2023-09-26T02:44:27.303Z,11.85
2023-09-26T02:47:15.223Z,11.88
2023-09-26T02:50:04.773Z,12.27
2023-09-26T02:52:53.406Z,12.80
2023-09-26T02:55:42.578Z,7.78
2023-09-26T02:58:30.556Z,12.57
2023-09-26T03:01:18.651Z,6.32
2023-09-26T03:04:07.540Z,13.50
2023-09-26T03:06:57.036Z,13.63
2023-09-26T03:09:45.087Z,12.63
2023-09-26T03:12:33.015Z,4.78
2023-09-26T03:15:20.907Z,14.68
2023-09-26T03:18:08.609Z,14.07
2023-09-26T03:20:57.243Z,15.90
2023-09-26T03:23:46.541Z,15.48
2023-09-26T03:26:34.500Z,16.67
2023-09-26T03:29:22.380Z,17.27
2023-09-26T03:32:11.676Z,23.65
2023-09-26T03:34:59.749Z,19.00
2023-09-26T03:37:47.686Z,17.83
2023-09-26T03:40:36.798Z,7.05
2023-09-26T03:43:24.499Z,6.50
2023-09-26T03:46:12.204Z,20.73
2023-09-26T03:49:00.279Z,19.75
2023-09-26T03:51:48.051Z,7.28
2023-09-26T03:54:36.905Z,16.67
2023-09-26T03:57:26.517Z,5.40
2023-09-26T04:00:17.324Z,14.60
2023-09-26T04:03:05.538Z,6.57
2023-09-26T04:05:58.749Z,18.33
2023-09-26T04:08:47.147Z,11.20
2023-09-26T04:11:34.990Z,19.13
2023-09-26T04:14:24.744Z,17.17
2023-09-26T04:17:12.961Z,20.15
2023-09-26T04:20:01.169Z,20.75
2023-09-26T04:22:49.323Z,20.20
2023-09-26T04:25:37.828Z,19.67
2023-09-26T04:28:25.770Z,7.70
2023-09-26T04:31:17.563Z,18.92
2023-09-26T04:34:06.376Z,7.47
2023-09-26T04:36:54.626Z,21.33
2023-09-26T04:39:45.482Z,23.52
2023-09-26T04:42:34.121Z,9.15
2023-09-26T04:45:22.102Z,21.85
2023-09-26T04:48:11.600Z,11.00
2023-09-26T04:50:59.515Z,22.02
2023-09-26T04:53:47.131Z,23.45
2023-09-26T04:56:34.820Z,23.88
2023-09-26T04:59:22.554Z,23.23
2023-09-26T05:02:10.355Z,24.48
2023-09-26T05:05:00.033Z,23.60
2023-09-26T05:07:49.924Z,23.55
2023-09-26T05:10:39.567Z,21.80
2023-09-26T05:13:27.684Z,22.92
2023-09-26T05:16:16.551Z,25.05
2023-09-26T05:19:04.781Z,22.52
2023-09-26T05:21:54.000Z,25.02
2023-09-26T05:24:41.801Z,27.58
2023-09-26T05:27:29.733Z,13.05
2023-09-26T05:30:17.536Z,30.95
2023-09-26T05:33:05.238Z,33.30
2023-09-26T05:35:54.509Z,36.45
2023-09-26T05:38:43.959Z,37.05
2023-09-26T05:41:31.688Z,38.47
2023-09-26T05:44:19.878Z,39.40
2023-09-26T05:47:08.000Z,38.38
2023-09-26T05:49:55.680Z,39.97
2023-09-26T05:52:43.507Z,41.42
2023-09-26T05:55:32.844Z,42.55
2023-09-26T05:58:20.868Z,40.67
2023-09-26T06:01:10.163Z,40.10
2023-09-26T06:03:58.590Z,38.90
2023-09-26T06:06:46.677Z,38.42
2023-09-26T06:09:34.187Z,39.22
2023-09-26T06:12:23.171Z,41.15
2023-09-26T06:15:11.920Z,39.15
2023-09-26T06:18:00.857Z,38.20
2023-09-26T06:20:48.706Z,39.40
2023-09-26T06:23:38.004Z,40.35
2023-09-26T06:26:25.893Z,40.20
2023-09-26T06:29:15.470Z,37.70
2023-09-26T06:32:03.298Z,39.20
2023-09-26T06:34:53.048Z,39.55
2023-09-26T06:37:41.784Z,39.97
2023-09-26T06:40:29.448Z,40.03
2023-09-26T06:43:17.436Z,37.58
2023-09-26T06:46:08.206Z,42.55
2023-09-26T06:48:56.409Z,41.22
2023-09-26T06:51:44.350Z,40.47
2023-09-26T06:54:34.135Z,37.88
2023-09-26T06:57:27.565Z,39.22
2023-09-26T07:00:18.211Z,38.38
2023-09-26T07:03:08.456Z,35.35
2023-09-26T07:05:56.137Z,34.90
2023-09-26T07:08:45.832Z,34.42
2023-09-26T07:11:33.706Z,37.00
2023-09-26T07:14:21.346Z,37.85
2023-09-26T07:17:11.354Z,35.60
2023-09-26T07:20:02.289Z,34.30
2023-09-26T07:22:50.117Z,32.92
2023-09-26T07:25:37.953Z,31.50
2023-09-26T07:28:26.046Z,32.75
2023-09-26T07:31:15.116Z,31.38
2023-09-26T07:34:03.557Z,31.65
2023-09-26T07:36:53.488Z,30.95
2023-09-26T07:39:41.459Z,31.17
2023-09-26T07:42:29.264Z,27.50
2023-09-26T07:45:18.022Z,27.08
2023-09-26T07:48:06.259Z,28.15
2023-09-26T07:50:54.330Z,27.60
2023-09-26T07:53:43.631Z,25.00
2023-09-26T07:56:31.332Z,22.50
2023-09-26T07:59:19.456Z,21.60
2023-09-26T08:02:07.514Z,21.08
2023-09-26T08:04:55.741Z,21.00
2023-09-26T08:07:44.688Z,20.58
2023-09-26T08:10:34.107Z,21.13
2023-09-26T08:13:21.927Z,19.40
2023-09-26T08:16:10.657Z,18.98
2023-09-26T08:18:58.825Z,19.67
2023-09-26T08:21:46.795Z,18.92
2023-09-26T08:24:34.689Z,18.45
2023-09-26T08:27:27.397Z,17.95
2023-09-26T08:30:15.385Z,19.30
2023-09-26T08:33:02.950Z,20.83
2023-09-26T08:35:50.898Z,18.48
2023-09-26T08:38:38.856Z,19.73
2023-09-26T08:41:27.762Z,19.42
2023-09-26T08:44:17.184Z,17.80
2023-09-26T08:47:04.846Z,19.48
2023-09-26T08:49:53.541Z,20.13
2023-09-26T08:52:41.531Z,19.58
2023-09-26T08:55:29.880Z,19.30
2023-09-26T08:58:18.913Z,20.33
2023-09-26T09:01:08.673Z,19.33
2023-09-26T09:03:56.821Z,20.80
2023-09-26T09:06:44.467Z,19.88
2023-09-26T09:09:33.143Z,18.35
2023-09-26T09:12:24.149Z,19.50
2023-09-26T09:15:21.545Z,19.65
2023-09-26T09:18:10.851Z,20.48
2023-09-26T09:20:58.628Z,19.38
2023-09-26T09:23:48.651Z,18.55
2023-09-26T09:26:37.128Z,20.30
2023-09-26T09:29:25.188Z,20.58
2023-09-26T09:32:13.024Z,21.25
2023-09-26T09:35:02.167Z,19.88
2023-09-26T09:37:51.801Z,19.25
2023-09-26T09:40:40.026Z,19.48
2023-09-26T09:43:27.995Z,19.85
2023-09-26T09:46:15.728Z,21.35
2023-09-26T09:49:05.650Z,21.23
2023-09-26T09:51:57.640Z,20.45
2023-09-26T09:54:46.665Z,20.05
2023-09-26T09:57:35.468Z,19.38
2023-09-26T10:00:26.080Z,21.13
2023-09-26T10:03:14.529Z,20.42
2023-09-26T10:06:03.898Z,20.23
2023-09-26T10:08:55.043Z,19.23
2023-09-26T10:11:43.830Z,19.25
2023-09-26T10:14:34.228Z,19.10
2023-09-26T10:17:23.208Z,18.75
2023-09-26T10:23:12.248Z,17.60
2023-09-26T10:26:04.423Z,18.80
2023-09-26T10:28:54.194Z,19.33
2023-09-26T10:31:43.289Z,19.95
2023-09-26T10:34:51.372Z,17.85
2023-09-26T10:37:40.847Z,17.73
2023-09-26T10:40:29.005Z,17.55
2023-09-26T10:43:43.144Z,17.52
2023-09-26T10:46:26.556Z,16.52
2023-09-26T10:49:14.978Z,17.00
2023-09-26T10:52:04.088Z,17.30
2023-09-26T10:54:52.807Z,19.10
2023-09-26T10:57:41.256Z,17.95
2023-09-26T11:00:30.320Z,17.55
2023-09-26T11:03:18.433Z,18.15
2023-09-26T11:06:08.289Z,17.00
2023-09-26T11:08:56.278Z,17.73
2023-09-26T11:11:45.217Z,16.65
2023-09-26T11:14:33.487Z,16.75
2023-09-26T11:17:22.814Z,16.58
2023-09-26T11:20:12.762Z,16.20
2023-09-26T11:23:00.785Z,14.93
2023-09-26T11:25:53.793Z,15.82
2023-09-26T11:28:41.691Z,15.85
2023-09-26T11:31:30.392Z,16.55
2023-09-26T11:34:20.321Z,17.23
2023-09-26T11:37:08.710Z,14.75
2023-09-26T11:39:57.928Z,16.08
2023-09-26T11:42:47.612Z,15.02
2023-09-26T11:45:35.877Z,14.88
2023-09-26T11:48:24.068Z,14.43
2023-09-26T11:51:13.048Z,14.73
2023-09-26T11:54:00.899Z,16.08
2023-09-26T11:56:49.920Z,14.23
2023-09-26T11:59:37.972Z,13.25
2023-09-26T12:02:26.557Z,12.77
2023-09-26T12:05:14.785Z,13.45
2023-09-26T12:08:03.829Z,13.18
2023-09-26T12:10:51.425Z,12.90
2023-09-26T12:13:39.463Z,12.18
2023-09-26T12:16:30.971Z,13.57
2023-09-26T12:19:19.063Z,13.52
2023-09-26T12:22:06.836Z,13.13
2023-09-26T12:24:56.968Z,12.88
2023-09-26T12:27:45.409Z,12.73
2023-09-26T12:30:33.002Z,12.73
2023-09-26T12:33:21.354Z,12.73
2023-09-26T12:36:09.558Z,12.68
2023-09-26T12:38:57.545Z,11.50
2023-09-26T12:41:46.835Z,11.45
2023-09-26T12:44:37.418Z,12.35
2023-09-26T12:47:25.326Z,11.48
2023-09-26T12:50:13.536Z,11.15
2023-09-26T12:53:01.656Z,11.65
2023-09-26T12:55:49.555Z,12.18
2023-09-26T12:58:39.133Z,10.68
2023-09-26T13:01:26.996Z,11.57
2023-09-26T13:04:15.134Z,10.50
2023-09-26T13:07:03.088Z,11.13
2023-09-26T13:09:51.851Z,10.43
2023-09-26T13:12:40.588Z,10.45
2023-09-26T13:15:32.806Z,11.57
2023-09-26T13:18:20.614Z,10.60
2023-09-26T13:21:08.853Z,10.48
2023-09-26T13:23:57.013Z,10.43
2023-09-26T13:26:47.298Z,10.45
2023-09-26T13:29:35.217Z,10.18
2023-09-26T13:32:25.601Z,10.10
2023-09-26T13:35:13.642Z,10.48
2023-09-26T13:38:04.553Z,10.80
2023-09-26T13:40:53.623Z,10.65
2023-09-26T13:43:41.483Z,9.93
2023-09-26T13:46:29.695Z,9.55
2023-09-26T13:49:18.857Z,9.73
2023-09-26T13:52:07.181Z,9.60
2023-09-26T13:54:56.040Z,9.88
2023-09-26T13:57:43.864Z,9.02
2023-09-26T14:00:33.783Z,9.70
2023-09-26T14:03:22.046Z,9.75
2023-09-26T14:06:11.805Z,9.93
2023-09-26T14:08:59.820Z,9.52
2023-09-26T14:11:47.875Z,10.32
2023-09-26T14:14:35.625Z,10.57
2023-09-26T14:17:23.477Z,10.50
2023-09-26T14:20:11.806Z,10.48
2023-09-26T14:23:01.184Z,10.23
2023-09-26T14:25:54.263Z,10.60
2023-09-26T14:28:43.026Z,11.43
2023-09-26T14:31:31.545Z,10.27
2023-09-26T14:34:19.493Z,10.55
2023-09-26T14:37:07.316Z,9.15
2023-09-26T14:39:57.055Z,10.93
2023-09-26T14:42:44.873Z,10.65
2023-09-26T14:45:39.809Z,11.50
2023-09-26T14:48:31.297Z,10.38
2023-09-26T14:51:19.065Z,10.57
2023-09-26T14:54:07.249Z,10.20
2023-09-26T14:56:56.542Z,10.85
2023-09-26T14:59:44.473Z,10.30
2023-09-26T15:02:32.583Z,10.25
2023-09-26T15:05:20.900Z,10.35
2023-09-26T15:08:08.986Z,11.38
2023-09-26T15:10:56.894Z,10.70
2023-09-26T15:13:46.032Z,11.00
2023-09-26T15:16:33.970Z,11.13
2023-09-26T15:19:22.174Z,11.75
2023-09-26T15:22:10.375Z,12.30
2023-09-26T15:24:58.186Z,11.77
2023-09-26T15:27:46.248Z,12.52
2023-09-26T15:30:35.441Z,12.27
2023-09-26T15:33:23.417Z,12.48
2023-09-26T15:36:15.565Z,12.52
2023-09-26T15:39:03.622Z,11.77
2023-09-26T15:41:52.420Z,12.32
2023-09-26T15:44:41.797Z,12.73
2023-09-26T15:47:31.335Z,12.55
2023-09-26T15:50:19.776Z,13.05
2023-09-26T15:53:07.575Z,12.85
2023-09-26T15:55:55.517Z,12.98
2023-09-26T15:58:44.360Z,13.25
2023-09-26T16:01:32.393Z,12.85
2023-09-26T16:04:21.674Z,12.35
2023-09-26T16:07:09.607Z,12.63
2023-09-26T16:09:57.782Z,11.68
2023-09-26T16:13:01.383Z,12.30
2023-09-26T16:15:54.364Z,12.40
2023-09-26T16:18:42.112Z,12.48
2023-09-26T16:21:31.289Z,12.60
2023-09-26T16:24:19.080Z,12.10
2023-09-26T16:27:06.787Z,11.88
2023-09-26T16:29:54.918Z,10.88
2023-09-26T16:32:42.929Z,12.38
2023-09-26T16:35:31.367Z,12.63
2023-09-26T16:38:20.389Z,11.98
2023-09-26T16:41:08.506Z,12.45
2023-09-26T16:43:57.190Z,12.38
2023-09-26T16:46:44.889Z,13.05
2023-09-26T16:49:33.222Z,12.52
2023-09-26T16:52:21.230Z,11.75
2023-09-26T16:55:11.641Z,12.90
2023-09-26T16:57:59.579Z,11.90
2023-09-26T17:00:47.088Z,12.13
2023-09-26T17:03:36.260Z,12.13
2023-09-26T17:06:24.545Z,12.80
2023-09-26T17:09:12.775Z,13.90
2023-09-26T17:12:01.952Z,12.43
2023-09-26T17:14:50.330Z,13.07
2023-09-26T17:17:39.481Z,11.98
2023-09-26T17:20:27.387Z,13.23
2023-09-26T17:23:15.448Z,11.98
2023-09-26T17:26:03.078Z,13.23
2023-09-26T17:28:53.123Z,13.20
2023-09-26T17:31:41.362Z,13.77
2023-09-26T17:34:29.673Z,12.63
2023-09-26T17:37:17.573Z,12.65
2023-09-26T17:40:05.788Z,13.27
2023-09-26T17:42:53.993Z,12.55
2023-09-26T17:45:43.491Z,13.07
2023-09-26T17:48:32.190Z,12.98
2023-09-26T17:51:22.123Z,14.00
2023-09-26T17:54:09.877Z,13.32
2023-09-26T17:56:58.039Z,13.68
2023-09-26T17:59:45.950Z,13.50
2023-09-26T18:02:35.442Z,14.40
2023-09-26T18:05:25.251Z,14.60
2023-09-26T18:08:12.860Z,14.45
2023-09-26T18:11:03.322Z,14.93
2023-09-26T18:13:51.265Z,14.73
2023-09-26T18:16:38.939Z,14.18
2023-09-26T18:19:28.308Z,13.05
2023-09-26T18:22:16.164Z,14.10
2023-09-26T18:25:04.439Z,13.25
2023-09-26T18:27:52.133Z,13.20
2023-09-26T18:30:39.700Z,13.00
2023-09-26T18:33:27.668Z,12.95
2023-09-26T18:36:17.144Z,12.65
2023-09-26T18:39:05.873Z,12.55
2023-09-26T18:41:53.604Z,12.30
2023-09-26T18:44:41.082Z,12.13
2023-09-26T18:47:29.071Z,12.30
2023-09-26T18:50:17.995Z,13.38
2023-09-26T18:53:07.750Z,13.10
2023-09-26T18:55:55.945Z,12.27
2023-09-26T18:58:43.740Z,13.38
2023-09-26T19:01:33.328Z,14.18
2023-09-26T19:04:21.648Z,13.40
2023-09-26T19:07:09.402Z,14.68
2023-09-26T19:09:58.603Z,14.73
2023-09-26T19:12:47.558Z,16.05
2023-09-26T19:15:35.245Z,13.90
2023-09-26T19:18:23.579Z,15.38
2023-09-26T19:21:11.555Z,15.48
2023-09-26T19:23:59.330Z,15.80
2023-09-26T19:26:48.791Z,15.82
2023-09-26T19:29:36.849Z,15.35
2023-09-26T19:32:25.014Z,16.20
2023-09-26T19:35:12.606Z,16.77
2023-09-26T19:38:00.754Z,16.80
2023-09-26T19:40:48.673Z,17.08
2023-09-26T19:43:38.012Z,16.70
2023-09-26T19:46:26.231Z,20.02
2023-09-26T19:49:14.326Z,20.50
2023-09-26T19:52:02.091Z,20.00
2023-09-26T19:54:49.938Z,20.08
2023-09-26T19:57:37.602Z,22.48
2023-09-26T20:00:26.786Z,19.40
2023-09-26T20:03:15.049Z,19.50
2023-09-26T20:06:02.867Z,21.83
2023-09-26T20:08:50.899Z,22.08
2023-09-26T20:11:38.674Z,22.10
2023-09-26T20:14:26.629Z,22.20
2023-09-26T20:17:15.886Z,21.80
2023-09-26T20:20:03.886Z,23.40
2023-09-26T20:22:51.761Z,23.52
2023-09-26T20:25:39.610Z,20.40
2023-09-26T20:28:27.554Z,19.90
2023-09-26T20:31:17.114Z,19.83
2023-09-26T20:34:07.772Z,22.38
2023-09-26T20:36:57.180Z,21.67
2023-09-26T20:39:45.160Z,21.67
2023-09-26T20:42:33.294Z,24.08
2023-09-26T20:45:21.271Z,22.10
2023-09-26T20:48:09.328Z,25.15
2023-09-26T20:50:58.761Z,23.15
2023-09-26T20:53:46.576Z,24.83
2023-09-26T20:56:34.344Z,21.65
2023-09-26T20:59:22.243Z,22.52
2023-09-26T21:02:10.052Z,21.15
2023-09-26T21:04:57.929Z,21.33
2023-09-26T21:07:47.176Z,25.75
2023-09-26T21:10:35.394Z,27.60
2023-09-26T21:13:23.393Z,22.67
2023-09-26T21:16:12.802Z,23.27
2023-09-26T21:19:00.916Z,23.13
2023-09-26T21:21:49.270Z,24.45
2023-09-26T21:24:39.749Z,21.88
2023-09-26T21:27:27.588Z,23.75
2023-09-26T21:30:15.807Z,22.77
2023-09-26T21:33:03.766Z,23.10
2023-09-26T21:35:53.060Z,22.08
2023-09-26T21:38:40.806Z,23.75
2023-09-26T21:41:30.385Z,20.83
2023-09-26T21:44:18.174Z,21.08
2023-09-26T21:47:06.441Z,21.25
2023-09-26T21:49:55.027Z,19.88
2023-09-26T21:52:43.439Z,19.33
2023-09-26T21:55:31.084Z,20.88
2023-09-26T21:58:20.883Z,21.48
2023-09-26T22:01:09.282Z,23.05
2023-09-26T22:03:57.181Z,21.08
2023-09-26T22:06:45.233Z,24.25
2023-09-26T22:09:33.153Z,28.17
2023-09-26T22:12:21.540Z,27.83
2023-09-26T22:15:11.428Z,24.85
2023-09-26T22:18:01.097Z,20.02
2023-09-26T22:20:51.044Z,19.77
2023-09-26T22:23:39.386Z,18.80
2023-09-26T22:26:27.379Z,20.25
2023-09-26T22:29:15.157Z,18.40
2023-09-26T22:32:04.443Z,18.70
2023-09-26T22:34:52.263Z,18.13
2023-09-26T22:37:40.211Z,17.85
2023-09-26T22:40:36.382Z,17.10
2023-09-26T22:43:32.504Z,19.17
2023-09-26T22:46:20.618Z,17.58
2023-09-26T22:49:10.126Z,17.67
2023-09-26T22:51:58.762Z,18.02
2023-09-26T22:54:46.548Z,17.67
2023-09-26T22:57:34.235Z,18.73
2023-09-26T23:00:22.152Z,19.77
2023-09-26T23:03:10.099Z,18.48
2023-09-26T23:06:00.899Z,16.20
2023-09-26T23:08:48.756Z,17.30
2023-09-26T23:11:36.538Z,16.88
2023-09-26T23:14:24.791Z,17.55
2023-09-26T23:17:12.781Z,20.15
2023-09-26T23:20:00.718Z,19.13
2023-09-26T23:22:49.858Z,20.70
2023-09-26T23:25:37.891Z,17.92
2023-09-26T23:28:25.817Z,17.92
2023-09-26T23:31:13.879Z,19.50
2023-09-26T23:34:01.939Z,20.17
2023-09-26T23:36:49.804Z,18.25
2023-09-26T23:39:39.179Z,18.88
2023-09-26T23:42:27.001Z,18.50
2023-09-26T23:45:15.155Z,16.65
2023-09-26T23:48:03.930Z,17.52
2023-09-26T23:50:51.991Z,17.25
2023-09-26T23:53:39.772Z,16.67
2023-09-26T23:56:29.660Z,17.23
2023-09-26T23:59:17.518Z,15.65
